createdAt,value
2018-05-13T00:01:47.963Z,12.80
2018-05-13T00:04:15.499Z,12.80
2018-05-13T00:06:43.911Z,12.80
2018-05-13T00:09:11.418Z,12.80
2018-05-13T00:11:39.139Z,12.80
2018-05-13T00:14:06.620Z,12.70
2018-05-13T00:16:34.606Z,12.70
2018-05-13T00:19:03.759Z,12.70
2018-05-13T00:21:31.270Z,12.60
2018-05-13T00:23:58.808Z,12.60
2018-05-13T00:26:26.303Z,12.60
2018-05-13T00:28:53.844Z,12.60
2018-05-13T00:31:22.456Z,12.60
2018-05-13T00:33:50.180Z,12.50
2018-05-13T00:36:17.667Z,12.50
2018-05-13T00:38:47.207Z,12.50
2018-05-13T00:41:14.716Z,12.50
2018-05-13T00:43:42.275Z,12.50
2018-05-13T00:46:11.208Z,12.40
2018-05-13T00:48:38.684Z,12.40
2018-05-13T00:51:06.213Z,12.40
2018-05-13T00:53:34.125Z,12.30
2018-05-13T00:56:02.320Z,12.30
2018-05-13T00:58:30.424Z,12.30
2018-05-13T01:00:57.930Z,12.20
2018-05-13T01:03:25.492Z,12.30
2018-05-13T01:05:53.241Z,12.20
2018-05-13T01:08:21.476Z,12.20
2018-05-13T01:10:49.195Z,12.20
2018-05-13T01:13:16.725Z,12.20
2018-05-13T01:15:44.451Z,12.10
2018-05-13T01:18:12.198Z,12.10
2018-05-13T01:20:39.699Z,12.10
2018-05-13T01:23:07.207Z,12.10
2018-05-13T01:25:34.865Z,12.10
2018-05-13T01:28:03.131Z,12.10
2018-05-13T01:30:31.462Z,12.10
2018-05-13T01:32:59.907Z,12.10
2018-05-13T01:35:29.183Z,12.10
2018-05-13T01:37:56.667Z,12.10
2018-05-13T01:40:25.224Z,12.10
2018-05-13T01:42:52.761Z,12.10
2018-05-13T01:45:20.459Z,12.10
2018-05-13T01:47:47.951Z,12.10
2018-05-13T01:50:16.563Z,12.10
2018-05-13T01:52:49.395Z,12.10
2018-05-13T01:55:19.500Z,12.00
2018-05-13T01:57:48.288Z,12.00
2018-05-13T02:00:16.938Z,11.90
2018-05-13T02:03:15.436Z,12.00
2018-05-13T02:05:43.711Z,11.90
2018-05-13T02:08:11.576Z,11.90
2018-05-13T02:10:39.071Z,11.90
2018-05-13T02:13:31.187Z,11.90
2018-05-13T02:15:58.687Z,11.90
2018-05-13T02:18:26.815Z,12.00
2018-05-13T02:20:55.197Z,12.00
2018-05-13T02:23:22.683Z,12.10
2018-05-13T02:25:50.188Z,12.10
2018-05-13T02:28:17.679Z,12.10
2018-05-13T02:30:45.748Z,12.20
2018-05-13T02:33:13.979Z,12.20
2018-05-13T02:35:41.473Z,12.30
2018-05-13T02:38:09.195Z,12.30
2018-05-13T02:40:36.692Z,12.30
2018-05-13T02:43:04.848Z,12.30
2018-05-13T02:45:32.612Z,12.30
2018-05-13T02:48:01.212Z,12.30
2018-05-13T02:50:28.747Z,12.40
2018-05-13T02:52:56.250Z,12.40
2018-05-13T02:55:24.575Z,12.40
2018-05-13T02:57:52.279Z,12.40
2018-05-13T03:00:20.585Z,12.40
2018-05-13T03:02:48.093Z,12.40
2018-05-13T03:05:15.784Z,12.40
2018-05-13T03:07:43.270Z,12.40
2018-05-13T03:10:11.069Z,12.40
2018-05-13T03:12:38.549Z,12.40
2018-05-13T03:15:06.873Z,12.50
2018-05-13T03:17:34.379Z,12.40
2018-05-13T03:20:02.635Z,12.50
2018-05-13T03:22:30.440Z,12.50
2018-05-13T03:24:57.947Z,12.50
2018-05-13T03:27:25.460Z,12.50
2018-05-13T03:29:53.723Z,12.60
2018-05-13T03:32:21.990Z,12.60
2018-05-13T03:34:49.490Z,12.60
2018-05-13T03:37:17.013Z,12.60
2018-05-13T03:39:44.566Z,12.50
2018-05-13T03:42:12.056Z,12.50
2018-05-13T03:44:39.819Z,12.50
2018-05-13T03:47:07.312Z,12.40
2018-05-13T03:49:35.007Z,12.40
2018-05-13T03:52:02.483Z,12.40
2018-05-13T03:54:30.000Z,12.40
2018-05-13T03:56:58.166Z,12.40
2018-05-13T03:59:25.657Z,12.40
2018-05-13T04:01:53.953Z,12.50
2018-05-13T04:04:21.439Z,12.50
2018-05-13T04:06:48.920Z,12.50
2018-05-13T04:09:28.711Z,12.50
2018-05-13T04:12:21.098Z,12.60
2018-05-13T04:15:01.080Z,12.70
2018-05-13T04:17:28.571Z,12.80
2018-05-13T04:19:57.708Z,12.80
2018-05-13T04:22:25.196Z,12.80
2018-05-13T04:24:52.676Z,12.80
2018-05-13T04:27:21.144Z,12.90
2018-05-13T04:29:48.971Z,12.90
2018-05-13T04:32:16.492Z,13.00
2018-05-13T04:34:44.027Z,13.00
2018-05-13T04:37:11.539Z,13.00
2018-05-13T04:39:39.086Z,13.10
2018-05-13T04:42:07.365Z,13.20
2018-05-13T04:44:34.962Z,13.10
2018-05-13T04:47:02.652Z,13.20
2018-05-13T04:49:30.123Z,13.20
2018-05-13T04:51:57.633Z,13.20
2018-05-13T04:54:25.283Z,13.10
2018-05-13T04:56:52.763Z,13.10
2018-05-13T04:59:20.250Z,13.10
2018-05-13T05:01:47.747Z,13.10
2018-05-13T05:04:46.155Z,13.10
2018-05-13T05:07:13.921Z,13.10
2018-05-13T05:09:41.436Z,13.10
2018-05-13T05:12:09.163Z,13.10
2018-05-13T05:14:37.496Z,13.20
2018-05-13T05:17:05.028Z,13.20
2018-05-13T05:19:33.299Z,13.40
2018-05-13T05:22:00.788Z,13.40
2018-05-13T05:24:28.479Z,13.50
2018-05-13T05:26:56.182Z,13.70
2018-05-13T05:29:24.325Z,13.80
2018-05-13T05:31:51.827Z,13.90
2018-05-13T05:34:20.660Z,14.00
2018-05-13T05:36:48.354Z,14.10
2018-05-13T05:39:15.855Z,14.20
2018-05-13T05:41:43.391Z,14.30
2018-05-13T05:44:12.003Z,14.40
2018-05-13T05:46:39.976Z,14.50
2018-05-13T05:49:07.549Z,14.60
2018-05-13T05:51:35.023Z,14.60
2018-05-13T05:54:03.708Z,14.70
2018-05-13T05:56:31.225Z,14.70
2018-05-13T05:58:58.720Z,14.90
2018-05-13T06:01:30.858Z,15.00
2018-05-13T06:04:03.736Z,15.10
2018-05-13T06:06:31.448Z,15.20
2018-05-13T06:09:01.767Z,15.20
2018-05-13T06:11:29.256Z,15.30
2018-05-13T06:13:58.028Z,15.30
2018-05-13T06:16:25.825Z,15.30
2018-05-13T06:18:53.307Z,15.30
2018-05-13T06:21:20.863Z,15.30
2018-05-13T06:23:48.390Z,15.40
2018-05-13T06:26:21.883Z,15.50
2018-05-13T06:28:49.395Z,15.60
2018-05-13T06:31:17.676Z,15.80
2018-05-13T06:33:45.944Z,15.80
2018-05-13T06:38:47.004Z,16.00
2018-05-13T06:41:14.495Z,16.10
2018-05-13T06:43:41.963Z,16.20
2018-05-13T06:46:09.454Z,16.30
2018-05-13T06:48:37.058Z,16.40
2018-05-13T06:51:04.625Z,16.50
2018-05-13T06:53:32.031Z,16.60
2018-05-13T06:55:59.507Z,16.70
2018-05-13T06:58:27.026Z,16.80
2018-05-13T07:00:57.355Z,16.90
2018-05-13T07:03:24.951Z,17.10
2018-05-13T07:05:53.643Z,17.20
2018-05-13T07:11:01.787Z,17.40
2018-05-13T07:16:04.747Z,17.70
2018-05-13T07:21:08.080Z,17.90
2018-05-13T07:23:50.193Z,18.10
2018-05-13T07:26:17.704Z,18.20
2018-05-13T07:28:45.822Z,18.30
2018-05-13T07:39:08.315Z,18.90
2018-05-13T07:41:39.152Z,19.10
2018-05-13T07:44:12.359Z,19.20
2018-05-13T07:46:40.715Z,19.40
2018-05-13T07:49:09.975Z,19.40
2018-05-13T07:51:39.192Z,19.60
2018-05-13T07:54:09.155Z,19.70
2018-05-13T08:09:24.128Z,20.50
2018-05-13T08:11:53.251Z,20.70
2018-05-13T08:14:35.624Z,20.90
2018-05-13T08:22:24.250Z,21.30
2018-05-13T08:24:51.813Z,21.40
2018-05-13T08:30:13.091Z,21.60
2018-05-13T08:32:41.519Z,21.70
2018-05-13T08:35:08.991Z,21.80
2018-05-13T08:37:49.533Z,22.00
2018-05-13T08:40:19.599Z,22.10
2018-05-13T08:42:50.562Z,22.20
2018-05-13T08:45:19.711Z,22.40
2018-05-13T08:47:47.528Z,22.40
2018-05-13T08:52:47.350Z,22.70
2018-05-13T08:57:48.181Z,23.00
2018-05-13T09:00:17.393Z,23.20
2018-05-13T09:02:46.263Z,23.20
2018-05-13T09:05:13.840Z,23.30
2018-05-13T09:07:41.332Z,23.40
2018-05-13T09:12:42.136Z,23.70
2018-05-13T09:15:12.963Z,23.70
2018-05-13T09:17:42.617Z,23.90
2018-05-13T09:20:11.069Z,24.00
2018-05-13T09:28:32.603Z,24.30
2018-05-13T09:31:00.106Z,24.30
2018-05-13T09:33:27.620Z,24.40
2018-05-13T09:35:58.309Z,24.60
2018-05-13T09:38:26.041Z,24.50
2018-05-13T09:40:54.047Z,24.60
2018-05-13T09:43:21.779Z,24.60
2018-05-13T09:45:49.905Z,24.70
2018-05-13T09:48:18.418Z,24.70
2018-05-13T09:50:47.202Z,24.70
2018-05-13T09:55:52.220Z,24.90
2018-05-13T09:58:20.348Z,25.00
2018-05-13T10:00:49.426Z,25.10
2018-05-13T10:03:19.219Z,25.10
2018-05-13T10:05:47.756Z,25.10
2018-05-13T10:08:17.372Z,25.10
2018-05-13T10:10:45.174Z,25.10
2018-05-13T10:13:14.425Z,25.20
2018-05-13T10:15:42.739Z,25.10
2018-05-13T10:18:10.539Z,25.20
2018-05-13T10:38:58.477Z,25.60
2018-05-13T10:44:02.765Z,25.70
2018-05-13T10:51:37.627Z,25.80
2018-05-13T10:54:22.199Z,25.80
2018-05-13T10:56:50.712Z,25.80
2018-05-13T11:04:25.423Z,25.80
2018-05-13T11:06:52.924Z,25.80
2018-05-13T11:09:20.548Z,25.90
2018-05-13T11:11:51.411Z,25.90
2018-05-13T11:14:21.452Z,25.90
2018-05-13T11:16:49.340Z,25.90
2018-05-13T11:19:20.979Z,26.00
2018-05-13T11:24:21.920Z,26.00
2018-05-13T11:26:50.677Z,25.90
2018-05-13T11:29:19.296Z,25.90
2018-05-13T11:31:47.483Z,26.00
2018-05-13T11:34:24.662Z,26.00
2018-05-13T11:36:53.678Z,26.00
2018-05-13T11:39:26.268Z,26.00
2018-05-13T11:41:55.661Z,26.00
2018-05-13T11:44:24.587Z,26.00
2018-05-13T11:46:52.081Z,26.00
2018-05-13T11:49:21.217Z,26.00
2018-05-13T11:54:20.661Z,26.00
2018-05-13T11:56:48.875Z,26.10
2018-05-13T12:12:07.399Z,26.20
2018-05-13T12:23:13.774Z,26.00
2018-05-13T12:25:41.971Z,25.90
2018-05-13T12:28:11.367Z,25.90
2018-05-13T12:30:38.881Z,25.90
2018-05-13T12:33:07.192Z,25.80
2018-05-13T12:35:34.719Z,25.80
2018-05-13T12:38:02.310Z,25.80
2018-05-13T12:40:32.414Z,25.70
2018-05-13T12:42:59.954Z,25.70
2018-05-13T12:45:27.675Z,25.80
2018-05-13T12:47:56.179Z,25.80
2018-05-13T12:50:23.988Z,25.80
2018-05-13T12:52:51.504Z,25.80
2018-05-13T12:55:20.489Z,25.90
2018-05-13T12:57:48.729Z,25.90
2018-05-13T13:00:18.515Z,25.90
2018-05-13T13:02:47.723Z,25.90
2018-05-13T13:05:15.990Z,25.90
2018-05-13T13:07:43.610Z,25.80
2018-05-13T13:10:11.661Z,25.80
2018-05-13T13:12:40.497Z,25.80
2018-05-13T13:15:08.518Z,25.70
2018-05-13T13:17:36.792Z,25.70
2018-05-13T13:20:05.924Z,25.70
2018-05-13T13:22:34.028Z,25.70
2018-05-13T13:25:02.438Z,25.70
2018-05-13T13:27:31.873Z,25.60
2018-05-13T13:30:01.512Z,25.60
2018-05-13T13:32:29.740Z,25.60
2018-05-13T13:35:03.139Z,25.70
2018-05-13T13:37:31.419Z,25.70
2018-05-13T13:40:00.388Z,25.80
2018-05-13T13:42:27.887Z,25.70
2018-05-13T13:44:55.825Z,25.70
2018-05-13T13:47:24.365Z,25.60
2018-05-13T13:52:23.520Z,25.50
2018-05-13T13:54:51.376Z,25.40
2018-05-13T13:57:20.418Z,25.40
2018-05-13T13:59:48.181Z,25.30
2018-05-13T14:02:16.900Z,25.30
2018-05-13T14:04:45.411Z,25.30
2018-05-13T14:07:13.856Z,25.30
2018-05-13T14:09:42.759Z,25.40
2018-05-13T14:12:13.815Z,25.30
2018-05-13T14:14:51.794Z,25.30
2018-05-13T14:17:21.346Z,25.30
2018-05-13T14:19:52.769Z,25.30
2018-05-13T14:22:22.609Z,25.30
2018-05-13T14:24:51.853Z,25.30
2018-05-13T14:27:20.476Z,25.30
2018-05-13T14:32:37.985Z,25.20
2018-05-13T14:35:17.041Z,25.10
2018-05-13T14:37:45.847Z,25.10
2018-05-13T14:40:14.107Z,25.20
2018-05-13T14:42:42.661Z,25.20
2018-05-13T14:45:10.823Z,25.20
2018-05-13T14:47:38.247Z,25.10
2018-05-13T14:50:06.709Z,25.10
2018-05-13T14:52:35.264Z,26.00
2018-05-13T14:55:02.747Z,26.00
2018-05-13T14:57:31.258Z,27.10
2018-05-13T14:59:59.655Z,28.20
2018-05-13T15:02:29.471Z,29.50
2018-05-13T15:04:56.994Z,29.50
2018-05-13T15:07:31.060Z,30.10
2018-05-13T15:10:01.764Z,30.50
2018-05-13T15:12:29.473Z,30.70
2018-05-13T15:15:22.499Z,30.90
2018-05-13T15:17:50.712Z,31.10
2018-05-13T15:20:19.548Z,31.60
2018-05-13T15:22:47.058Z,32.10
2018-05-13T15:25:16.920Z,33.00
2018-05-13T15:27:46.738Z,33.00
2018-05-13T15:30:15.374Z,33.50
2018-05-13T15:32:44.223Z,33.90
2018-05-13T15:37:51.236Z,34.10
2018-05-13T15:40:22.508Z,34.10
2018-05-13T15:42:52.138Z,34.30
2018-05-13T15:45:20.424Z,34.60
2018-05-13T15:47:49.248Z,34.60
2018-05-13T15:50:18.357Z,34.60
2018-05-13T15:52:47.690Z,34.40
2018-05-13T15:55:16.875Z,34.60
2018-05-13T16:00:28.516Z,34.40
2018-05-13T16:03:08.758Z,34.20
2018-05-13T16:05:36.310Z,34.10
2018-05-13T16:08:07.350Z,34.20
2018-05-13T16:10:36.080Z,34.20
2018-05-13T16:13:04.360Z,34.30
2018-05-13T16:15:33.559Z,34.30
2018-05-13T16:18:01.439Z,34.20
2018-05-13T16:20:29.180Z,34.00
2018-05-13T16:23:02.689Z,32.40
2018-05-13T16:25:30.944Z,32.30
2018-05-13T16:28:00.955Z,31.00
2018-05-13T16:30:28.877Z,29.80
2018-05-13T16:33:06.380Z,28.70
2018-05-13T16:35:35.509Z,27.80
2018-05-13T16:38:04.327Z,27.20
2018-05-13T16:40:37.810Z,26.70
2018-05-13T16:45:37.067Z,26.00
2018-05-13T16:48:05.515Z,25.80
2018-05-13T16:50:34.268Z,25.50
2018-05-13T16:53:03.182Z,25.20
2018-05-13T16:55:32.350Z,24.80
2018-05-13T16:58:00.200Z,24.70
2018-05-13T17:00:28.952Z,24.60
2018-05-13T17:02:58.228Z,24.50
2018-05-13T17:05:25.741Z,24.30
2018-05-13T17:07:54.609Z,24.10
2018-05-13T17:10:23.275Z,23.90
2018-05-13T17:12:51.754Z,23.70
2018-05-13T17:15:19.702Z,23.60
2018-05-13T17:17:51.490Z,23.40
2018-05-13T17:20:19.121Z,23.40
2018-05-13T17:22:49.661Z,23.30
2018-05-13T17:25:19.336Z,23.20
2018-05-13T17:27:48.193Z,23.10
2018-05-13T17:30:17.269Z,23.00
2018-05-13T17:32:48.215Z,22.80
2018-05-13T17:35:15.701Z,22.80
2018-05-13T17:37:43.626Z,22.70
2018-05-13T17:40:12.877Z,22.60
2018-05-13T17:42:40.628Z,22.50
2018-05-13T17:45:08.146Z,22.40
2018-05-13T17:47:36.372Z,22.30
2018-05-13T17:50:04.095Z,22.20
2018-05-13T17:52:32.507Z,22.10
2018-05-13T17:55:00.831Z,22.00
2018-05-13T17:57:29.947Z,21.90
2018-05-13T17:59:58.846Z,21.90
2018-05-13T18:02:26.614Z,21.80
2018-05-13T18:04:54.479Z,21.70
2018-05-13T18:07:22.219Z,21.60
2018-05-13T18:09:50.007Z,21.50
2018-05-13T18:12:18.298Z,21.40
2018-05-13T18:14:47.577Z,21.30
2018-05-13T18:17:18.164Z,21.20
2018-05-13T18:19:56.800Z,21.10
2018-05-13T18:22:25.842Z,21.00
2018-05-13T18:24:53.660Z,20.80
2018-05-13T18:27:21.078Z,20.70
2018-05-13T18:29:50.752Z,20.60
2018-05-13T18:32:19.659Z,20.50
2018-05-13T18:34:48.130Z,20.40
2018-05-13T18:37:17.456Z,20.40
2018-05-13T18:39:46.112Z,20.10
2018-05-13T18:42:14.007Z,20.10
2018-05-13T18:44:41.526Z,20.00
2018-05-13T18:49:43.484Z,19.90
2018-05-13T18:52:12.749Z,19.60
2018-05-13T20:02:09.541Z,17.40
2018-05-13T20:10:32.916Z,17.20
2018-05-13T20:57:05.114Z,15.80
2018-05-13T20:59:33.045Z,15.80
2018-05-13T21:02:02.072Z,15.70
2018-05-13T21:07:03.549Z,15.70
2018-05-13T21:12:06.589Z,15.60
2018-05-13T21:14:47.199Z,15.60
2018-05-13T21:17:30.011Z,15.50
2018-05-13T21:19:59.403Z,15.40
2018-05-13T21:25:01.346Z,15.40
2018-05-13T21:27:29.059Z,15.40
2018-05-13T21:29:59.553Z,15.30
2018-05-13T21:32:27.053Z,15.20
2018-05-13T21:34:55.517Z,15.20
2018-05-13T21:37:23.786Z,15.10
2018-05-13T21:39:51.269Z,15.10
2018-05-13T21:42:19.817Z,15.10
2018-05-13T21:44:48.311Z,15.00
2018-05-13T21:47:17.779Z,14.90
2018-05-13T21:49:45.929Z,15.00
2018-05-13T21:52:14.084Z,14.90
2018-05-13T21:54:41.734Z,14.80
2018-05-13T21:57:11.323Z,14.80
2018-05-13T21:59:39.897Z,14.80
2018-05-13T22:02:08.979Z,14.80
2018-05-13T22:04:53.970Z,14.80
2018-05-13T22:09:55.449Z,14.60
2018-05-13T22:12:25.758Z,14.60
2018-05-13T22:15:01.174Z,14.50
2018-05-13T22:17:32.522Z,14.50
2018-05-13T22:20:07.985Z,14.50
2018-05-13T22:22:36.274Z,14.50
2018-05-13T22:25:06.132Z,14.40
2018-05-13T22:27:36.276Z,14.40
2018-05-13T22:30:05.229Z,14.40
2018-05-13T22:32:32.776Z,14.40
2018-05-13T22:35:00.526Z,14.40
2018-05-13T22:37:32.602Z,14.30
2018-05-13T22:40:03.392Z,14.30
2018-05-13T22:42:33.106Z,14.30
2018-05-13T22:50:07.315Z,14.30
2018-05-13T22:52:36.384Z,14.20
2018-05-13T22:55:04.144Z,14.20
2018-05-13T22:57:31.950Z,14.20
2018-05-13T23:00:01.187Z,14.20
2018-05-13T23:02:29.639Z,14.20
2018-05-13T23:05:28.588Z,14.20
2018-05-13T23:07:56.593Z,14.20
2018-05-13T23:10:24.316Z,14.10
2018-05-13T23:12:55.948Z,14.10
2018-05-13T23:15:38.389Z,14.10
2018-05-13T23:18:07.431Z,14.10
2018-05-13T23:20:34.965Z,14.10
2018-05-13T23:23:07.043Z,14.10
2018-05-13T23:25:35.285Z,14.10
2018-05-13T23:28:03.754Z,14.10
2018-05-13T23:30:32.020Z,14.10
2018-05-13T23:33:01.180Z,14.10
2018-05-13T23:35:30.239Z,14.00
2018-05-13T23:37:57.755Z,14.00
2018-05-13T23:40:25.536Z,14.00
2018-05-13T23:42:54.007Z,14.00
2018-05-13T23:45:21.796Z,14.00
2018-05-13T23:47:49.320Z,13.90
2018-05-13T23:50:17.047Z,13.90
2018-05-13T23:52:44.601Z,13.90
2018-05-13T23:55:18.650Z,13.90
2018-05-13T23:57:46.128Z,13.90
